sensor_id;sensor_type;location;lat;lon;timestamp;pressure;altitude;pressure_sealevel;temperature
72054;BMP280;59918;51.280;7.950;2023-04-16T00:01:42;98178.97;;;8.62
72054;BMP280;59918;51.280;7.950;2023-04-16T00:04:07;98179.13;;;8.61
72054;BMP280;59918;51.280;7.950;2023-04-16T00:06:32;98181.69;;;8.61
72054;BMP280;59918;51.280;7.950;2023-04-16T00:08:57;98180.13;;;8.60
72054;BMP280;59918;51.280;7.950;2023-04-16T00:11:23;98180.13;;;8.60
72054;BMP280;59918;51.280;7.950;2023-04-16T00:13:48;98186.22;;;8.59
72054;BMP280;59918;51.280;7.950;2023-04-16T00:16:13;98184.66;;;8.58
72054;BMP280;59918;51.280;7.950;2023-04-16T00:18:38;98194.69;;;8.59
72054;BMP280;59918;51.280;7.950;2023-04-16T00:21:03;98193.13;;;8.58
72054;BMP280;59918;51.280;7.950;2023-04-16T00:23:28;98190.56;;;8.58
72054;BMP280;59918;51.280;7.950;2023-04-16T00:25:54;98194.69;;;8.59
72054;BMP280;59918;51.280;7.950;2023-04-16T00:28:19;98196.47;;;8.59
72054;BMP280;59918;51.280;7.950;2023-04-16T00:30:44;98193.91;;;8.59
72054;BMP280;59918;51.280;7.950;2023-04-16T00:33:09;98194.53;;;8.61
72054;BMP280;59918;51.280;7.950;2023-04-16T00:35:34;98198.69;;;8.62
72054;BMP280;59918;51.280;7.950;2023-04-16T00:37:59;98191.78;;;8.62
72054;BMP280;59918;51.280;7.950;2023-04-16T00:40:28;98191.16;;;8.60
72054;BMP280;59918;51.280;7.950;2023-04-16T00:42:53;98190.38;;;8.60
72054;BMP280;59918;51.280;7.950;2023-04-16T00:45:18;98190.56;;;8.58
72054;BMP280;59918;51.280;7.950;2023-04-16T00:47:43;98199.81;;;8.59
72054;BMP280;59918;51.280;7.950;2023-04-16T00:50:09;98198.41;;;8.57
72054;BMP280;59918;51.280;7.950;2023-04-16T00:52:34;98197.03;;;8.54
72054;BMP280;59918;51.280;7.950;2023-04-16T00:55:00;98196.25;;;8.54
72054;BMP280;59918;51.280;7.950;2023-04-16T00:57:25;98196.84;;;8.56
72054;BMP280;59918;51.280;7.950;2023-04-16T00:59:50;98194.28;;;8.56
72054;BMP280;59918;51.280;7.950;2023-04-16T01:02:15;98201.00;;;8.57
72054;BMP280;59918;51.280;7.950;2023-04-16T01:04:40;98202.75;;;8.56
72054;BMP280;59918;51.280;7.950;2023-04-16T01:07:06;98206.09;;;8.57
72054;BMP280;59918;51.280;7.950;2023-04-16T01:09:31;98206.91;;;8.57
72054;BMP280;59918;51.280;7.950;2023-04-16T01:11:56;98201.00;;;8.57
72054;BMP280;59918;51.280;7.950;2023-04-16T01:14:21;98202.59;;;8.58
72054;BMP280;59918;51.280;7.950;2023-04-16T01:16:46;98199.03;;;8.59
72054;BMP280;59918;51.280;7.950;2023-04-16T01:19:11;98202.59;;;8.58
72054;BMP280;59918;51.280;7.950;2023-04-16T01:21:36;98201.00;;;8.57
72054;BMP280;59918;51.280;7.950;2023-04-16T01:24:02;98212.56;;;8.53
72054;BMP280;59918;51.280;7.950;2023-04-16T01:26:27;98212.41;;;8.54
72054;BMP280;59918;51.280;7.950;2023-04-16T01:28:53;98214.97;;;8.54
72054;BMP280;59918;51.280;7.950;2023-04-16T01:31:18;98210.81;;;8.53
72054;BMP280;59918;51.280;7.950;2023-04-16T01:33:43;98213.38;;;8.53
72054;BMP280;59918;51.280;7.950;2023-04-16T01:36:08;98210.81;;;8.53
72054;BMP280;59918;51.280;7.950;2023-04-16T01:38:33;98214.19;;;8.54
72054;BMP280;59918;51.280;7.950;2023-04-16T01:40:58;98213.97;;;8.55
72054;BMP280;59918;51.280;7.950;2023-04-16T01:43:24;98215.75;;;8.55
72054;BMP280;59918;51.280;7.950;2023-04-16T01:45:49;98218.94;;;8.57
72054;BMP280;59918;51.280;7.950;2023-04-16T01:48:16;98214.19;;;8.54
72054;BMP280;59918;51.280;7.950;2023-04-16T01:50:42;98217.53;;;8.54
72054;BMP280;59918;51.280;7.950;2023-04-16T01:53:07;98220.88;;;8.55
72054;BMP280;59918;51.280;7.950;2023-04-16T01:55:32;98219.91;;;8.56
72054;BMP280;59918;51.280;7.950;2023-04-16T01:57:58;98224.44;;;8.54
72054;BMP280;59918;51.280;7.950;2023-04-16T02:00:23;98215.94;;;8.53
72054;BMP280;59918;51.280;7.950;2023-04-16T02:02:48;98216.75;;;8.54
72054;BMP280;59918;51.280;7.950;2023-04-16T02:05:13;98218.31;;;8.55
72054;BMP280;59918;51.280;7.950;2023-04-16T02:07:38;98219.91;;;8.56
72054;BMP280;59918;51.280;7.950;2023-04-16T02:10:03;98223.09;;;8.58
72054;BMP280;59918;51.280;7.950;2023-04-16T02:12:29;98214.59;;;8.57
72054;BMP280;59918;51.280;7.950;2023-04-16T02:14:54;98214.59;;;8.57
72054;BMP280;59918;51.280;7.950;2023-04-16T02:17:19;98218.75;;;8.58
72054;BMP280;59918;51.280;7.950;2023-04-16T02:19:44;98222.09;;;8.59
72054;BMP280;59918;51.280;7.950;2023-04-16T02:22:09;98223.28;;;8.56
72054;BMP280;59918;51.280;7.950;2023-04-16T02:24:34;98218.16;;;8.56
72054;BMP280;59918;51.280;7.950;2023-04-16T02:26:59;98221.50;;;8.57
72054;BMP280;59918;51.280;7.950;2023-04-16T02:29:24;98217.97;;;8.58
72054;BMP280;59918;51.280;7.950;2023-04-16T02:31:50;98220.31;;;8.59
72054;BMP280;59918;51.280;7.950;2023-04-16T02:34:15;98222.09;;;8.59
72054;BMP280;59918;51.280;7.950;2023-04-16T02:36:40;98226.44;;;8.58
72054;BMP280;59918;51.280;7.950;2023-04-16T02:39:05;98224.66;;;8.59
72054;BMP280;59918;51.280;7.950;2023-04-16T02:41:30;98234.31;;;8.57
72054;BMP280;59918;51.280;7.950;2023-04-16T02:43:56;98232.91;;;8.54
72054;BMP280;59918;51.280;7.950;2023-04-16T02:46:21;98233.09;;;8.53
72054;BMP280;59918;51.280;7.950;2023-04-16T02:48:46;98229.72;;;8.52
72054;BMP280;59918;51.280;7.950;2023-04-16T02:51:11;98224.78;;;8.51
72054;BMP280;59918;51.280;7.950;2023-04-16T02:53:36;98225.56;;;8.51
72054;BMP280;59918;51.280;7.950;2023-04-16T02:56:01;98217.09;;;8.51
72054;BMP280;59918;51.280;7.950;2023-04-16T02:58:26;98222.22;;;8.51
72054;BMP280;59918;51.280;7.950;2023-04-16T03:00:52;98224.00;;;8.50
72054;BMP280;59918;51.280;7.950;2023-04-16T03:03:18;98225.78;;;8.50
72054;BMP280;59918;51.280;7.950;2023-04-16T03:05:43;98223.22;;;8.50
72054;BMP280;59918;51.280;7.950;2023-04-16T03:08:09;98219.03;;;8.49
72054;BMP280;59918;51.280;7.950;2023-04-16T03:10:34;98222.38;;;8.49
72054;BMP280;59918;51.280;7.950;2023-04-16T03:12:59;98220.03;;;8.48
72054;BMP280;59918;51.280;7.950;2023-04-16T03:15:24;98226.13;;;8.47
72054;BMP280;59918;51.280;7.950;2023-04-16T03:17:49;98227.09;;;8.46
72054;BMP280;59918;51.280;7.950;2023-04-16T03:20:14;98219.41;;;8.46
72054;BMP280;59918;51.280;7.950;2023-04-16T03:22:40;98232.41;;;8.44
72054;BMP280;59918;51.280;7.950;2023-04-16T03:25:08;98234.78;;;8.46
72054;BMP280;59918;51.280;7.950;2023-04-16T03:27:33;98237.34;;;8.46
72054;BMP280;59918;51.280;7.950;2023-04-16T03:29:58;98234.78;;;8.46
72054;BMP280;59918;51.280;7.950;2023-04-16T03:32:24;98236.53;;;8.45
72054;BMP280;59918;51.280;7.950;2023-04-16T03:34:49;98238.31;;;8.45
72054;BMP280;59918;51.280;7.950;2023-04-16T03:37:14;98239.09;;;8.45
72054;BMP280;59918;51.280;7.950;2023-04-16T03:39:39;98238.94;;;8.47
72054;BMP280;59918;51.280;7.950;2023-04-16T03:42:04;98237.16;;;8.47
72054;BMP280;59918;51.280;7.950;2023-04-16T03:44:29;98239.53;;;8.49
72054;BMP280;59918;51.280;7.950;2023-04-16T03:46:54;98234.25;;;8.50
72054;BMP280;59918;51.280;7.950;2023-04-16T03:49:20;98242.56;;;8.52
72054;BMP280;59918;51.280;7.950;2023-04-16T03:51:45;98243.34;;;8.53
72054;BMP280;59918;51.280;7.950;2023-04-16T03:54:10;98241.75;;;8.52
72054;BMP280;59918;51.280;7.950;2023-04-16T03:56:35;98242.09;;;8.49
72054;BMP280;59918;51.280;7.950;2023-04-16T03:59:00;98239.53;;;8.49
72054;BMP280;59918;51.280;7.950;2023-04-16T04:01:25;98241.16;;;8.50
72054;BMP280;59918;51.280;7.950;2023-04-16T04:03:51;98239.38;;;8.50
72054;BMP280;59918;51.280;7.950;2023-04-16T04:06:16;98239.53;;;8.49
72054;BMP280;59918;51.280;7.950;2023-04-16T04:08:41;98244.66;;;8.49
72054;BMP280;59918;51.280;7.950;2023-04-16T04:11:06;98249.19;;;8.47
72054;BMP280;59918;51.280;7.950;2023-04-16T04:13:31;98254.47;;;8.45
72054;BMP280;59918;51.280;7.950;2023-04-16T04:15:56;98254.69;;;8.44
72054;BMP280;59918;51.280;7.950;2023-04-16T04:18:21;98258.03;;;8.44
72054;BMP280;59918;51.280;7.950;2023-04-16T04:20:47;98262.00;;;8.47
72054;BMP280;59918;51.280;7.950;2023-04-16T04:23:12;98254.47;;;8.45
72054;BMP280;59918;51.280;7.950;2023-04-16T04:25:37;98259.44;;;8.47
72054;BMP280;59918;51.280;7.950;2023-04-16T04:28:02;98260.06;;;8.49
72054;BMP280;59918;51.280;7.950;2023-04-16T04:30:27;98259.25;;;8.48
72054;BMP280;59918;51.280;7.950;2023-04-16T04:32:52;98272.88;;;8.49
72054;BMP280;59918;51.280;7.950;2023-04-16T04:35:17;98277.03;;;8.50
72054;BMP280;59918;51.280;7.950;2023-04-16T04:37:43;98274.28;;;8.51
72054;BMP280;59918;51.280;7.950;2023-04-16T04:40:08;98271.91;;;8.50
72054;BMP280;59918;51.280;7.950;2023-04-16T04:42:33;98273.47;;;8.51
72054;BMP280;59918;51.280;7.950;2023-04-16T04:44:58;98276.03;;;8.51
72054;BMP280;59918;51.280;7.950;2023-04-16T04:47:23;98280.63;;;8.55
72054;BMP280;59918;51.280;7.950;2023-04-16T04:49:49;98283.03;;;8.57
72054;BMP280;59918;51.280;7.950;2023-04-16T04:52:14;98286.38;;;8.57
72054;BMP280;59918;51.280;7.950;2023-04-16T04:54:39;98287.81;;;8.60
72054;BMP280;59918;51.280;7.950;2023-04-16T04:57:04;98279.28;;;8.59
72054;BMP280;59918;51.280;7.950;2023-04-16T04:59:29;98285.22;;;8.60
72054;BMP280;59918;51.280;7.950;2023-04-16T05:01:54;98291.31;;;8.59
72054;BMP280;59918;51.280;7.950;2023-04-16T05:04:19;98290.38;;;8.60
72054;BMP280;59918;51.280;7.950;2023-04-16T05:06:44;98287.81;;;8.60
72054;BMP280;59918;51.280;7.950;2023-04-16T05:09:10;98298.06;;;8.60
72054;BMP280;59918;51.280;7.950;2023-04-16T05:11:35;98306.34;;;8.62
72054;BMP280;59918;51.280;7.950;2023-04-16T05:14:00;98301.03;;;8.63
72054;BMP280;59918;51.280;7.950;2023-04-16T05:16:25;98300.69;;;8.66
72054;BMP280;59918;51.280;7.950;2023-04-16T05:18:50;98307.38;;;8.67
72054;BMP280;59918;51.280;7.950;2023-04-16T05:21:15;98305.03;;;8.66
72054;BMP280;59918;51.280;7.950;2023-04-16T05:23:40;98301.47;;;8.67
72054;BMP280;59918;51.280;7.950;2023-04-16T05:26:05;98309.16;;;8.67
72054;BMP280;59918;51.280;7.950;2023-04-16T05:28:31;98309.16;;;8.67
72054;BMP280;59918;51.280;7.950;2023-04-16T05:30:56;98312.34;;;8.69
72054;BMP280;59918;51.280;7.950;2023-04-16T05:33:21;98305.63;;;8.68
72054;BMP280;59918;51.280;7.950;2023-04-16T05:35:46;98315.53;;;8.71
72054;BMP280;59918;51.280;7.950;2023-04-16T05:38:11;98313.13;;;8.69
72054;BMP280;59918;51.280;7.950;2023-04-16T05:40:36;98321.81;;;8.68
72054;BMP280;59918;51.280;7.950;2023-04-16T05:43:01;98324.56;;;8.67
72054;BMP280;59918;51.280;7.950;2023-04-16T05:45:27;98326.16;;;8.68
72054;BMP280;59918;51.280;7.950;2023-04-16T05:47:52;98328.09;;;8.66
72054;BMP280;59918;51.280;7.950;2023-04-16T05:50:17;98327.13;;;8.67
72054;BMP280;59918;51.280;7.950;2023-04-16T05:52:42;98330.66;;;8.66
72054;BMP280;59918;51.280;7.950;2023-04-16T05:55:07;98336.59;;;8.66
72054;BMP280;59918;51.280;7.950;2023-04-16T05:57:32;98336.41;;;8.68
72054;BMP280;59918;51.280;7.950;2023-04-16T05:59:58;98336.03;;;8.71
72054;BMP280;59918;51.280;7.950;2023-04-16T06:02:23;98334.47;;;8.70
72054;BMP280;59918;51.280;7.950;2023-04-16T06:04:48;98343.13;;;8.69
72054;BMP280;59918;51.280;7.950;2023-04-16T06:07:13;98345.69;;;8.69
72054;BMP280;59918;51.280;7.950;2023-04-16T06:09:38;98346.28;;;8.71
72054;BMP280;59918;51.280;7.950;2023-04-16T06:12:03;98345.50;;;8.70
72054;BMP280;59918;51.280;7.950;2023-04-16T06:14:29;98348.25;;;8.69
72054;BMP280;59918;51.280;7.950;2023-04-16T06:16:54;98345.06;;;8.67
72054;BMP280;59918;51.280;7.950;2023-04-16T06:19:19;98350.81;;;8.69
72054;BMP280;59918;51.280;7.950;2023-04-16T06:21:44;98351.41;;;8.71
72054;BMP280;59918;51.280;7.950;2023-04-16T06:24:09;98351.41;;;8.71
72054;BMP280;59918;51.280;7.950;2023-04-16T06:26:34;98354.59;;;8.73
72054;BMP280;59918;51.280;7.950;2023-04-16T06:28:59;98353.03;;;8.72
72054;BMP280;59918;51.280;7.950;2023-04-16T06:31:25;98347.91;;;8.72
72054;BMP280;59918;51.280;7.950;2023-04-16T06:33:50;98351.09;;;8.73
72054;BMP280;59918;51.280;7.950;2023-04-16T06:36:15;98351.88;;;8.74
72054;BMP280;59918;51.280;7.950;2023-04-16T06:38:40;98355.03;;;8.76
72054;BMP280;59918;51.280;7.950;2023-04-16T06:41:05;98347.19;;;8.77
72054;BMP280;59918;51.280;7.950;2023-04-16T06:43:30;98356.28;;;8.80
72054;BMP280;59918;51.280;7.950;2023-04-16T06:45:56;98356.09;;;8.81
72054;BMP280;59918;51.280;7.950;2023-04-16T06:48:21;98359.91;;;8.85
72054;BMP280;59918;51.280;7.950;2023-04-16T06:50:46;98357.94;;;8.87
72054;BMP280;59918;51.280;7.950;2023-04-16T06:53:11;98355.00;;;8.90
72054;BMP280;59918;51.280;7.950;2023-04-16T06:55:36;98363.16;;;8.94
72054;BMP280;59918;51.280;7.950;2023-04-16T06:58:01;98367.31;;;8.95
72054;BMP280;59918;51.280;7.950;2023-04-16T07:00:26;98361.19;;;8.96
72054;BMP280;59918;51.280;7.950;2023-04-16T07:02:51;98364.56;;;8.96
72054;BMP280;59918;51.280;7.950;2023-04-16T07:05:17;98365.16;;;8.98
72054;BMP280;59918;51.280;7.950;2023-04-16T07:07:42;98358.09;;;9.00
72054;BMP280;59918;51.280;7.950;2023-04-16T07:10:07;98367.00;;;9.04
72054;BMP280;59918;51.280;7.950;2023-04-16T07:12:32;98375.31;;;9.06
72054;BMP280;59918;51.280;7.950;2023-04-16T07:14:57;98372.41;;;9.09
72054;BMP280;59918;51.280;7.950;2023-04-16T07:17:23;98370.47;;;9.11
72054;BMP280;59918;51.280;7.950;2023-04-16T07:19:48;98371.41;;;9.10
72054;BMP280;59918;51.280;7.950;2023-04-16T07:22:13;98369.66;;;9.10
72054;BMP280;59918;51.280;7.950;2023-04-16T07:24:38;98374.44;;;9.13
72054;BMP280;59918;51.280;7.950;2023-04-16T07:27:03;98374.59;;;9.12
72054;BMP280;59918;51.280;7.950;2023-04-16T07:29:28;98374.59;;;9.12
72054;BMP280;59918;51.280;7.950;2023-04-16T07:31:53;98378.94;;;9.11
72054;BMP280;59918;51.280;7.950;2023-04-16T07:34:18;98381.50;;;9.11
72054;BMP280;59918;51.280;7.950;2023-04-16T07:36:44;98389.38;;;9.10
72054;BMP280;59918;51.280;7.950;2023-04-16T07:39:09;98392.94;;;9.09
72054;BMP280;59918;51.280;7.950;2023-04-16T07:41:34;98391.34;;;9.08
72054;BMP280;59918;51.280;7.950;2023-04-16T07:43:59;98393.09;;;9.08
72054;BMP280;59918;51.280;7.950;2023-04-16T07:46:24;98400.03;;;9.07
72054;BMP280;59918;51.280;7.950;2023-04-16T07:48:49;98394.88;;;9.07
72054;BMP280;59918;51.280;7.950;2023-04-16T07:51:14;98407.53;;;9.09
72054;BMP280;59918;51.280;7.950;2023-04-16T07:53:40;98409.13;;;9.09
72054;BMP280;59918;51.280;7.950;2023-04-16T07:56:05;98420.16;;;9.10
72054;BMP280;59918;51.280;7.950;2023-04-16T07:58:30;98412.69;;;9.09
72054;BMP280;59918;51.280;7.950;2023-04-16T08:00:55;98414.25;;;9.09
72054;BMP280;59918;51.280;7.950;2023-04-16T08:03:20;98419.03;;;9.12
72054;BMP280;59918;51.280;7.950;2023-04-16T08:05:46;98424.59;;;9.16
72054;BMP280;59918;51.280;7.950;2023-04-16T08:08:11;98422.63;;;9.18
72054;BMP280;59918;51.280;7.950;2023-04-16T08:10:37;98424.84;;;9.21
72054;BMP280;59918;51.280;7.950;2023-04-16T08:13:02;98420.41;;;9.29
72054;BMP280;59918;51.280;7.950;2023-04-16T08:15:27;98412.75;;;9.36
72054;BMP280;59918;51.280;7.950;2023-04-16T08:17:52;98420.19;;;9.45
72054;BMP280;59918;51.280;7.950;2023-04-16T08:20:17;98421.59;;;9.47
72054;BMP280;59918;51.280;7.950;2023-04-16T08:22:43;98431.06;;;9.47
72054;BMP280;59918;51.280;7.950;2023-04-16T08:25:08;98429.03;;;9.43
72054;BMP280;59918;51.280;7.950;2023-04-16T08:27:34;98438.69;;;9.41
72054;BMP280;59918;51.280;7.950;2023-04-16T08:29:59;98438.09;;;9.39
72054;BMP280;59918;51.280;7.950;2023-04-16T08:32:24;98436.84;;;9.35
72054;BMP280;59918;51.280;7.950;2023-04-16T08:34:50;98441.81;;;9.36
72054;BMP280;59918;51.280;7.950;2023-04-16T08:37:15;98452.09;;;9.36
72054;BMP280;59918;51.280;7.950;2023-04-16T08:39:40;98449.50;;;9.36
72054;BMP280;59918;51.280;7.950;2023-04-16T08:42:05;98452.88;;;9.37
72054;BMP280;59918;51.280;7.950;2023-04-16T08:44:36;98451.88;;;9.38
72054;BMP280;59918;51.280;7.950;2023-04-16T08:47:01;98461.97;;;9.39
72054;BMP280;59918;51.280;7.950;2023-04-16T08:49:27;98467.91;;;9.40
72054;BMP280;59918;51.280;7.950;2023-04-16T08:51:55;98468.88;;;9.39
72054;BMP280;59918;51.280;7.950;2023-04-16T08:56:45;98466.66;;;9.36
72054;BMP280;59918;51.280;7.950;2023-04-16T08:59:11;98471.44;;;9.39
72054;BMP280;59918;51.280;7.950;2023-04-16T09:01:36;98478.97;;;9.40
72054;BMP280;59918;51.280;7.950;2023-04-16T09:04:02;98476.59;;;9.39
72054;BMP280;59918;51.280;7.950;2023-04-16T09:06:30;98477.19;;;9.41
72054;BMP280;59918;51.280;7.950;2023-04-16T09:08:57;98484.19;;;9.46
72054;BMP280;59918;51.280;7.950;2023-04-16T09:11:23;98481.44;;;9.48
72054;BMP280;59918;51.280;7.950;2023-04-16T09:13:49;98488.69;;;9.45
72054;BMP280;59918;51.280;7.950;2023-04-16T09:16:14;98488.25;;;9.41
72054;BMP280;59918;51.280;7.950;2023-04-16T09:18:39;98493.94;;;9.37
72054;BMP280;59918;51.280;7.950;2023-04-16T09:21:04;98489.16;;;9.34
72054;BMP280;59918;51.280;7.950;2023-04-16T09:23:30;98492.72;;;9.33
72054;BMP280;59918;51.280;7.950;2023-04-16T09:25:56;98495.28;;;9.33
72054;BMP280;59918;51.280;7.950;2023-04-16T09:28:38;98506.94;;;9.35
72054;BMP280;59918;51.280;7.950;2023-04-16T09:31:10;98503.84;;;9.40
72054;BMP280;59918;51.280;7.950;2023-04-16T09:33:35;98516.78;;;9.46
72054;BMP280;59918;51.280;7.950;2023-04-16T09:36:01;98506.94;;;9.49
72054;BMP280;59918;51.280;7.950;2023-04-16T09:38:26;98517.47;;;9.54
72054;BMP280;59918;51.280;7.950;2023-04-16T09:41:09;98515.94;;;9.60
72054;BMP280;59918;51.280;7.950;2023-04-16T09:43:34;98525.06;;;9.62
72054;BMP280;59918;51.280;7.950;2023-04-16T09:45:59;98520.72;;;9.63
72054;BMP280;59918;51.280;7.950;2023-04-16T09:48:31;98523.53;;;9.68
72054;BMP280;59918;51.280;7.950;2023-04-16T09:50:59;98523.53;;;9.68
72054;BMP280;59918;51.280;7.950;2023-04-16T09:53:28;98526.72;;;9.70
72054;BMP280;59918;51.280;7.950;2023-04-16T09:55:57;98524.22;;;9.76
72054;BMP280;59918;51.280;7.950;2023-04-16T09:58:22;98534.38;;;9.84
72054;BMP280;59918;51.280;7.950;2023-04-16T10:00:47;98526.78;;;9.90
72054;BMP280;59918;51.280;7.950;2023-04-16T10:03:13;98526.59;;;9.92
72054;BMP280;59918;51.280;7.950;2023-04-16T10:05:38;98528.19;;;9.93
72054;BMP280;59918;51.280;7.950;2023-04-16T10:08:09;98525.25;;;9.96
72054;BMP280;59918;51.280;7.950;2023-04-16T10:10:35;98530.88;;;10.06
72054;BMP280;59918;51.280;7.950;2023-04-16T10:13:00;98535.50;;;10.10
72054;BMP280;59918;51.280;7.950;2023-04-16T10:15:25;98538.25;;;10.09
72054;BMP280;59918;51.280;7.950;2023-04-16T10:17:50;98542.94;;;10.05
72054;BMP280;59918;51.280;7.950;2023-04-16T10:20:16;98536.03;;;10.06
72054;BMP280;59918;51.280;7.950;2023-04-16T10:22:41;98540.25;;;10.13
72054;BMP280;59918;51.280;7.950;2023-04-16T10:25:06;98539.53;;;10.19
72054;BMP280;59918;51.280;7.950;2023-04-16T10:27:32;98543.31;;;10.23
72054;BMP280;59918;51.280;7.950;2023-04-16T10:29:57;98539.84;;;10.30
72054;BMP280;59918;51.280;7.950;2023-04-16T10:32:22;98537.75;;;10.40
72054;BMP280;59918;51.280;7.950;2023-04-16T10:34:49;98545.81;;;10.58
72054;BMP280;59918;51.280;7.950;2023-04-16T10:37:14;98546.50;;;10.73
72054;BMP280;59918;51.280;7.950;2023-04-16T10:39:39;98541.88;;;10.89
72054;BMP280;59918;51.280;7.950;2023-04-16T10:42:08;98551.69;;;11.06
72054;BMP280;59918;51.280;7.950;2023-04-16T10:44:34;98542.66;;;11.17
72054;BMP280;59918;51.280;7.950;2023-04-16T10:46:59;98546.63;;;11.26
72054;BMP280;59918;51.280;7.950;2023-04-16T10:49:24;98542.16;;;11.34
72054;BMP280;59918;51.280;7.950;2023-04-16T10:51:53;98539.59;;;11.40
72054;BMP280;59918;51.280;7.950;2023-04-16T10:54:20;98541.38;;;11.40
72054;BMP280;59918;51.280;7.950;2023-04-16T10:56:45;98545.34;;;11.36
72054;BMP280;59918;51.280;7.950;2023-04-16T10:59:11;98539.38;;;11.35
72054;BMP280;59918;51.280;7.950;2023-04-16T11:01:40;98543.97;;;11.40
72054;BMP280;59918;51.280;7.950;2023-04-16T11:06:46;98540.94;;;11.30
72054;BMP280;59918;51.280;7.950;2023-04-16T11:12:07;98532.53;;;11.49
72054;BMP280;59918;51.280;7.950;2023-04-16T11:14:35;98540.47;;;11.47
72054;BMP280;59918;51.280;7.950;2023-04-16T11:17:02;98531.53;;;11.43
72054;BMP280;59918;51.280;7.950;2023-04-16T11:19:27;98535.81;;;11.36
72054;BMP280;59918;51.280;7.950;2023-04-16T11:21:52;98536.56;;;11.24
72054;BMP280;59918;51.280;7.950;2023-04-16T11:24:18;98536.91;;;11.21
72054;BMP280;59918;51.280;7.950;2023-04-16T11:26:43;98540.59;;;11.39
72054;BMP280;59918;51.280;7.950;2023-04-16T11:29:13;98530.81;;;11.62
72054;BMP280;59918;51.280;7.950;2023-04-16T11:31:38;98537.63;;;11.89
72054;BMP280;59918;51.280;7.950;2023-04-16T11:34:03;98537.84;;;11.94
72054;BMP280;59918;51.280;7.950;2023-04-16T11:36:50;98533.47;;;11.94
72054;BMP280;59918;51.280;7.950;2023-04-16T11:39:15;98538.59;;;11.81
72054;BMP280;59918;51.280;7.950;2023-04-16T11:41:44;98540.34;;;11.68
72054;BMP280;59918;51.280;7.950;2023-04-16T11:44:22;98538.94;;;11.59
72054;BMP280;59918;51.280;7.950;2023-04-16T11:46:48;98541.53;;;11.66
72054;BMP280;59918;51.280;7.950;2023-04-16T11:49:13;98534.22;;;11.75
72054;BMP280;59918;51.280;7.950;2023-04-16T11:51:39;98538.63;;;11.94
72054;BMP280;59918;51.280;7.950;2023-04-16T11:54:04;98546.59;;;11.99
72054;BMP280;59918;51.280;7.950;2023-04-16T11:56:31;98543.16;;;11.86
72054;BMP280;59918;51.280;7.950;2023-04-16T11:59:06;98550.66;;;11.74
72054;BMP280;59918;51.280;7.950;2023-04-16T12:01:32;98547.31;;;11.80
72054;BMP280;59918;51.280;7.950;2023-04-16T12:04:00;98552.34;;;12.01
72054;BMP280;59918;51.280;7.950;2023-04-16T12:06:25;98550.59;;;12.21
72054;BMP280;59918;51.280;7.950;2023-04-16T12:08:50;98551.59;;;12.33
72054;BMP280;59918;51.280;7.950;2023-04-16T12:11:15;98553.78;;;12.16
72054;BMP280;59918;51.280;7.950;2023-04-16T12:13:40;98556.28;;;11.91
72054;BMP280;59918;51.280;7.950;2023-04-16T12:16:15;98554.44;;;11.72
72054;BMP280;59918;51.280;7.950;2023-04-16T12:18:44;98568.44;;;11.57
72054;BMP280;59918;51.280;7.950;2023-04-16T12:21:22;98573.94;;;11.47
72054;BMP280;59918;51.280;7.950;2023-04-16T12:23:47;98569.16;;;11.44
72054;BMP280;59918;51.280;7.950;2023-04-16T12:26:16;98568.19;;;11.45
72054;BMP280;59918;51.280;7.950;2023-04-16T12:28:42;98569.31;;;11.43
72054;BMP280;59918;51.280;7.950;2023-04-16T12:31:07;98566.72;;;11.36
72054;BMP280;59918;51.280;7.950;2023-04-16T12:33:34;98567.06;;;11.27
72054;BMP280;59918;51.280;7.950;2023-04-16T12:35:59;98569.59;;;11.21
72054;BMP280;59918;51.280;7.950;2023-04-16T12:38:24;98570.34;;;11.15
72054;BMP280;59918;51.280;7.950;2023-04-16T12:40:49;98573.69;;;11.09
72054;BMP280;59918;51.280;7.950;2023-04-16T12:43:15;98571.72;;;11.11
72054;BMP280;59918;51.280;7.950;2023-04-16T12:45:40;98575.09;;;11.11
72054;BMP280;59918;51.280;7.950;2023-04-16T12:48:05;98575.47;;;11.08
72054;BMP280;59918;51.280;7.950;2023-04-16T12:50:30;98578.41;;;11.05
72054;BMP280;59918;51.280;7.950;2023-04-16T12:52:56;98577.97;;;11.02
72054;BMP280;59918;51.280;7.950;2023-04-16T12:55:21;98568.69;;;11.01
72054;BMP280;59918;51.280;7.950;2023-04-16T12:57:47;98581.38;;;11.02
72054;BMP280;59918;51.280;7.950;2023-04-16T13:00:12;98581.38;;;11.02
72054;BMP280;59918;51.280;7.950;2023-04-16T13:02:38;98576.25;;;11.09
72054;BMP280;59918;51.280;7.950;2023-04-16T13:05:03;98576.16;;;11.23
72054;BMP280;59918;51.280;7.950;2023-04-16T13:07:28;98579.78;;;11.35
72054;BMP280;59918;51.280;7.950;2023-04-16T13:09:53;98584.78;;;11.43
72054;BMP280;59918;51.280;7.950;2023-04-16T13:12:18;98581.47;;;11.49
72054;BMP280;59918;51.280;7.950;2023-04-16T13:14:44;98578.09;;;11.48
72054;BMP280;59918;51.280;7.950;2023-04-16T13:17:09;98578.09;;;11.48
72054;BMP280;59918;51.280;7.950;2023-04-16T13:19:34;98577.31;;;11.48
72054;BMP280;59918;51.280;7.950;2023-04-16T13:21:59;98578.09;;;11.48
72054;BMP280;59918;51.280;7.950;2023-04-16T13:24:24;98571.16;;;11.49
72054;BMP280;59918;51.280;7.950;2023-04-16T13:26:50;98579.28;;;11.46
72054;BMP280;59918;51.280;7.950;2023-04-16T13:29:15;98577.44;;;11.40
72054;BMP280;59918;51.280;7.950;2023-04-16T13:31:40;98576.66;;;11.39
72054;BMP280;59918;51.280;7.950;2023-04-16T13:34:06;98580.03;;;11.40
72054;BMP280;59918;51.280;7.950;2023-04-16T13:36:31;98582.41;;;11.41
72054;BMP280;59918;51.280;7.950;2023-04-16T13:38:56;98579.41;;;11.38
72054;BMP280;59918;51.280;7.950;2023-04-16T13:41:21;98575.63;;;11.34
72054;BMP280;59918;51.280;7.950;2023-04-16T13:43:47;98581.94;;;11.31
72054;BMP280;59918;51.280;7.950;2023-04-16T13:46:12;98576.41;;;11.34
72054;BMP280;59918;51.280;7.950;2023-04-16T13:48:37;98578.81;;;11.36
72054;BMP280;59918;51.280;7.950;2023-04-16T13:51:02;98577.63;;;11.38
72054;BMP280;59918;51.280;7.950;2023-04-16T13:53:27;98577.06;;;11.43
72054;BMP280;59918;51.280;7.950;2023-04-16T13:55:52;98575.53;;;11.48
72054;BMP280;59918;51.280;7.950;2023-04-16T13:58:18;98579.72;;;11.56
72054;BMP280;59918;51.280;7.950;2023-04-16T14:00:43;98587.06;;;11.59
72054;BMP280;59918;51.280;7.950;2023-04-16T14:03:08;98579.72;;;11.56
72054;BMP280;59918;51.280;7.950;2023-04-16T14:05:33;98580.09;;;11.53
72054;BMP280;59918;51.280;7.950;2023-04-16T14:07:58;98575.94;;;11.52
72054;BMP280;59918;51.280;7.950;2023-04-16T14:10:23;98582.31;;;11.56
72054;BMP280;59918;51.280;7.950;2023-04-16T14:12:49;98579.56;;;11.64
72054;BMP280;59918;51.280;7.950;2023-04-16T14:15:14;98584.56;;;11.71
72054;BMP280;59918;51.280;7.950;2023-04-16T14:17:40;98583.56;;;11.72